createdAt,value
2024-05-09T00:01:15.648Z,7.70
2024-05-09T00:11:22.238Z,7.59
2024-05-09T00:21:25.485Z,7.48
2024-05-09T00:31:28.892Z,7.38
2024-05-09T00:41:34.454Z,7.29
2024-05-09T00:51:41.608Z,7.19
2024-05-09T01:01:46.807Z,7.08
2024-05-09T01:11:50.176Z,6.97
2024-05-09T01:21:53.451Z,6.88
2024-05-09T01:31:59.332Z,6.76
2024-05-09T01:42:03.151Z,6.66
2024-05-09T01:52:06.593Z,6.59
2024-05-09T02:02:10.825Z,6.51
2024-05-09T02:12:16.529Z,6.42
2024-05-09T02:22:19.879Z,6.32
2024-05-09T02:32:23.001Z,6.20
2024-05-09T02:42:28.543Z,6.09
2024-05-09T02:52:31.598Z,6.01
2024-05-09T03:02:34.995Z,6.01
2024-05-09T03:12:39.404Z,6.01
2024-05-09T03:22:44.680Z,6.07
2024-05-09T03:32:48.027Z,6.20
2024-05-09T03:42:54.036Z,6.36
2024-05-09T03:52:57.506Z,6.57
2024-05-09T04:03:01.141Z,6.86
2024-05-09T04:13:05.270Z,7.35
2024-05-09T04:23:11.900Z,11.49
2024-05-09T04:33:15.963Z,16.83
2024-05-09T04:43:20.704Z,14.67
2024-05-09T04:53:24.034Z,13.75
2024-05-09T05:03:27.863Z,20.84
2024-05-09T05:13:32.081Z,27.06
2024-05-09T05:23:35.491Z,30.36
2024-05-09T05:33:39.144Z,33.40
2024-05-09T05:43:42.580Z,35.68
2024-05-09T05:53:45.996Z,38.37
2024-05-09T06:03:49.798Z,41.18
2024-05-09T06:13:53.290Z,41.76
2024-05-09T06:23:56.597Z,44.06
2024-05-09T06:33:59.762Z,46.82
2024-05-09T06:44:03.195Z,48.27
2024-05-09T06:54:07.899Z,49.62
2024-05-09T07:04:11.558Z,50.23
2024-05-09T07:14:14.857Z,50.74
2024-05-09T07:24:18.220Z,49.92
2024-05-09T07:34:21.847Z,50.36
2024-05-09T07:44:25.185Z,51.77
2024-05-09T07:54:28.642Z,51.47
2024-05-09T08:04:32.037Z,49.02
2024-05-09T08:14:35.259Z,41.26
2024-05-09T08:24:38.499Z,35.04
2024-05-09T08:34:41.641Z,31.27
2024-05-09T08:44:47.570Z,27.49
2024-05-09T08:54:50.853Z,25.20
2024-05-09T09:05:02.975Z,23.79
2024-05-09T09:15:07.103Z,22.93
2024-05-09T09:25:10.406Z,22.49
2024-05-09T09:35:13.947Z,22.06
2024-05-09T09:45:17.634Z,21.91
2024-05-09T09:55:24.262Z,21.36
2024-05-09T10:05:28.038Z,20.86
2024-05-09T10:15:42.048Z,20.41
2024-05-09T10:25:55.269Z,20.06
2024-05-09T10:36:03.495Z,19.77
2024-05-09T10:46:07.439Z,19.90
2024-05-09T10:56:13.016Z,19.72
2024-05-09T11:06:16.864Z,19.57
2024-05-09T11:16:22.160Z,20.15
2024-05-09T11:26:28.671Z,20.82
2024-05-09T11:36:31.878Z,21.47
2024-05-09T11:46:35.298Z,21.82
2024-05-09T11:56:38.467Z,21.93
2024-05-09T12:06:41.574Z,22.13
2024-05-09T12:16:44.762Z,21.67
2024-05-09T12:26:48.035Z,21.39
2024-05-09T12:36:51.244Z,21.42
2024-05-09T12:46:54.676Z,21.39
2024-05-09T12:56:57.797Z,21.13
2024-05-09T13:07:01.045Z,20.64
2024-05-09T13:17:05.408Z,20.26
2024-05-09T13:27:09.656Z,19.86
2024-05-09T13:37:15.094Z,19.40
2024-05-09T13:47:19.170Z,19.00
2024-05-09T13:57:22.310Z,18.62
2024-05-09T14:07:25.635Z,18.36
2024-05-09T14:17:28.796Z,18.09
2024-05-09T14:27:34.292Z,17.83
2024-05-09T14:37:39.681Z,17.64
2024-05-09T14:47:43.137Z,17.40
2024-05-09T14:57:46.982Z,17.21
2024-05-09T15:07:50.103Z,17.06
2024-05-09T15:17:54.302Z,16.94
2024-05-09T15:27:57.916Z,16.86
2024-05-09T15:38:02.340Z,16.83
2024-05-09T15:48:07.942Z,16.86
2024-05-09T15:58:11.579Z,16.98
2024-05-09T16:08:15.349Z,17.03
2024-05-09T16:18:18.958Z,17.02
2024-05-09T16:28:24.525Z,16.98
2024-05-09T16:38:27.852Z,16.95
2024-05-09T16:48:31.488Z,16.86
2024-05-09T16:58:35.042Z,17.61
2024-05-09T17:08:41.001Z,18.20
2024-05-09T17:18:45.511Z,17.48
2024-05-09T17:28:48.997Z,17.16
2024-05-09T17:38:52.171Z,16.74
2024-05-09T17:48:57.356Z,16.18
2024-05-09T17:59:01.960Z,15.64
2024-05-09T18:09:05.667Z,15.13
2024-05-09T18:19:09.423Z,14.64
2024-05-09T18:29:13.129Z,14.05
2024-05-09T18:39:17.327Z,13.50
2024-05-09T18:49:20.837Z,12.94
2024-05-09T18:59:24.367Z,12.42
2024-05-09T19:09:27.594Z,11.90
2024-05-09T19:19:31.219Z,11.42
2024-05-09T19:29:35.016Z,11.01
2024-05-09T19:39:38.414Z,10.63
2024-05-09T19:49:41.989Z,10.26
2024-05-09T19:59:45.426Z,9.90
2024-05-09T20:09:48.756Z,9.57
2024-05-09T20:19:52.316Z,9.25
2024-05-09T20:29:56.039Z,8.96
2024-05-09T20:39:59.268Z,8.68
2024-05-09T20:50:04.114Z,8.42
2024-05-09T21:00:18.275Z,8.21
2024-05-09T21:10:22.989Z,7.96
2024-05-09T21:30:41.220Z,7.43
2024-05-09T21:40:46.024Z,7.18
2024-05-09T21:50:51.764Z,6.92
2024-05-09T22:00:55.010Z,6.70
2024-05-09T22:10:58.470Z,6.50
2024-05-09T22:21:01.794Z,6.33
2024-05-09T22:31:05.680Z,6.14
2024-05-09T22:41:08.976Z,5.93
2024-05-09T22:51:13.051Z,5.75
2024-05-09T23:01:16.400Z,5.60
2024-05-09T23:11:19.554Z,5.51
2024-05-09T23:21:23.345Z,5.38
2024-05-09T23:31:26.903Z,5.25
2024-05-09T23:41:30.349Z,5.09
2024-05-09T23:51:33.713Z,4.96
